Pittsburgh, Pennsylvania
Traffic Map
Current Weather Conditions
Pittsburgh, Pennsylvania
Clear
Clear
81°
Feels Like: 81°
Wind Chill: 81° Ceiling: Unl
Heat Index: 81° Visibility: 10mi
Dew Point: 48° Wind: 13mph
Humidity: 31% Direction: 210° (SSW)
Pressure: 30.14in Gusts: 18mph
Raw Report DataKAGC 251953Z 21011G16KT 10SM CLR 27/09 A3014 RMK AO2 SLP202 T02720089
Traffic Incident Summary
Active as of:
Severity:
Category:
InformationThere was an issue retrieving the traffic information for this location. Please try a different location or try again shortly.
Advertisements
Track Severe Weather on mobile